Milford Haven, United Kingdom
Current Conditions -  °F | °C
As of 11:50 AM on Friday 19 Dec 2014 (Local Time) from EGOP Reporting Station
Scattered Clouds Scattered Clouds  
Wind Chill: 42°   Ceiling: Unl
Heat Index: 48°   Visibility: 6mi
Dew Point: 41°   Wind: 16mph
Humidity: 76%   Direction: 280°W
Pressure: 30.09"   Gusts: NA
Location:  51.71°N, 5.03°W
Report Text: EGOP 191150Z AUTO 28014KT 9999 // SCT050/// 09/05 Q1019
Loading
Personal Weather Stations






























Interactive Weather Map New forecast layout! Learn more

10-Day Weather Forecast

Advertisements
Track Severe Weather on mobile